Latest Weather Observations for Mullion

IDN60801

Issued at 9:32 pm EDT Thursday 21 November 2019 (issued every 10 minutes, with the page automatically refreshed every 10 minutes)

About weather observations | Map of weather stations | Latest weather observations for NSW | Other Formats
Station Details ID: 250070 Name: MULLION (PCS) Lat: -35.11 Lon: 148.85 Height: 750.0 m

Portable automatic weather stations (PAWS) are operated by other organisations, such as Fire and Emergency Services, and are included here by agreement. Portable stations may be deployed to a location for a short period and their location may be subject to change without notice. Wind observations from these stations are provided from heights of either three (3) or ten (10) metres above ground level (AGL).

Data from the previous 72 hours. | See also: Recent months for locations in New South Wales
Date/Time
EDT
Temp
°C
App
Temp
°C
Dew
Point
°C
Rel
Hum
%
Delta-T
°C
Wind Press
QNH
hPa
Press
MSL
hPa
Rain since
9am
mm
Dir  Spd
km/h
Gust
km/h
Spd
kts
Gust
kts
21/09:20pm 30.0 24.1 -0.7 13 15.0 NW 20 24 11 13 1012.3 - 0.0
21/09:10pm 30.1 24.2 -0.6 13 15.0 NW 20 22 11 12 1012.1 - 0.0
21/09:00pm 30.2 24.3 -0.8 13 15.2 NW 20 22 11 12 1012.0 - 0.0
21/08:50pm 30.2 23.9 -0.7 13 15.1 NW 22 22 12 12 1012.0 - 0.0
21/08:40pm 30.3 24.1 -0.6 13 15.2 NW 22 24 12 13 1012.0 - 0.0
21/08:30pm 30.5 24.6 -0.6 13 15.3 NW 20 20 11 11 1012.0 - 0.0
21/08:20pm 30.7 25.0 -0.6 13 15.4 WNW 19 20 10 11 1011.8 - 0.0
21/08:10pm 31.0 25.1 -0.7 13 15.6 WNW 20 20 11 11 1011.8 - 0.0
21/08:00pm 31.4 25.1 -0.9 12 15.9 NW 22 22 12 12 1011.7 - 0.0
21/07:50pm 31.7 25.8 -1.1 12 16.1 NW 20 22 11 12 1011.7 - 0.0
21/07:40pm 32.0 26.1 -1.1 12 16.3 NW 20 24 11 13 1011.7 - 0.0
21/07:30pm 32.4 25.7 -1.4 11 16.6 NW 24 28 13 15 1011.7 - 0.0
21/07:20pm 32.7 25.2 -1.5 11 16.8 NW 28 30 15 16 1011.7 - 0.0
21/07:10pm 33.0 24.7 -1.7 11 17.0 NW 32 37 17 20 1011.6 - 0.0
21/07:00pm 33.2 25.2 -2.0 10 17.2 NW 30 33 16 18 1011.6 - 0.0
21/06:50pm 33.2 24.6 -2.4 10 17.3 NW 33 35 18 19 1011.6 - 0.0
21/06:40pm 33.4 24.0 -3.0 9 17.5 NW 37 41 20 22 1011.4 - 0.0
21/06:30pm 33.8 25.2 -3.9 9 17.9 NW 32 41 17 22 1011.4 - 0.0
21/06:20pm 34.1 24.9 -4.3 8 18.2 WNW 35 44 19 24 1011.6 - 0.0
21/06:10pm 34.4 23.8 -3.6 8 18.2 NW 43 46 23 25 1011.3 - 0.0
21/06:00pm 34.5 24.3 -3.5 8 18.3 WNW 41 48 22 26 1011.4 - 0.0
21/05:50pm 34.6 25.1 -3.5 8 18.3 WNW 37 46 20 25 1011.3 - 0.0
21/05:40pm 34.7 25.2 -3.6 8 18.4 NW 37 43 20 23 1011.5 - 0.0
21/05:30pm 34.7 24.4 -4.1 8 18.5 NW 41 46 22 25 1011.6 - 0.0
21/05:20pm 34.9 25.7 -4.7 8 18.7 NW 35 46 19 25 1011.6 - 0.0
21/05:10pm 34.9 24.6 -4.3 8 18.7 NW 41 48 22 26 1011.7 - 0.0
21/05:00pm 34.7 24.3 -4.8 8 18.6 NW 41 46 22 25 1011.7 - 0.0
21/04:50pm 35.1 25.9 -4.9 7 18.9 NW 35 43 19 23 1011.6 - 0.0
21/04:40pm 35.1 25.5 -5.0 7 18.9 NW 37 43 20 23 1011.9 - 0.0
21/04:30pm 34.8 24.0 -4.9 7 18.7 NW 43 50 23 27 1011.8 - 0.0
21/04:20pm 35.1 24.1 -5.2 7 19.0 NW 44 50 24 27 1012.1 - 0.0
21/04:10pm 35.2 25.2 -5.0 7 19.0 NNW 39 46 21 25 1011.9 - 0.0
21/04:00pm 35.0 24.0 -5.7 7 19.0 NW 44 50 24 27 1012.3 - 0.0
21/03:50pm 35.3 24.3 -5.6 7 19.1 NW 44 56 24 30 1012.4 - 0.0
21/03:40pm 35.3 24.5 -5.1 7 19.1 NNW 43 50 23 27 1012.7 - 0.0
21/03:30pm 35.7 26.0 -5.4 7 19.3 N 37 48 20 26 1012.0 - 0.0
21/03:20pm 35.0 23.6 -5.1 7 18.9 NNW 46 54 25 29 1012.5 - 0.0
21/03:10pm 35.4 25.0 -5.0 7 19.1 NNW 41 52 22 28 1012.9 - 0.0
21/03:00pm 35.0 25.4 -4.4 8 18.8 NNW 37 44 20 24 1013.3 - 0.0
21/02:50pm 35.1 24.7 -4.6 8 18.8 NNW 41 52 22 28 1013.1 - 0.0
21/02:40pm 34.6 24.2 -4.6 8 18.5 NNW 41 56 22 30 1013.2 - 0.0
21/02:30pm 34.6 23.7 -4.6 8 18.5 NW 44 57 24 31 1013.2 - 0.0
21/02:20pm 34.7 24.4 -4.2 8 18.5 NW 41 50 22 27 1013.7 - 0.0
21/02:10pm 35.0 - - - - NNW 33 52 18 28 1013.6 - 0.0
21/02:00pm 34.7 26.2 -3.7 8 18.4 NW 32 43 17 23 1014.2 - 0.0
21/01:50pm 34.3 24.4 -4.0 8 18.3 NW 39 43 21 23 1014.4 - 0.0
21/01:40pm 34.4 26.7 -3.0 9 18.1 NNW 28 43 15 23 1014.5 - 0.0
21/01:30pm 33.9 25.3 -2.8 9 17.8 NW 33 39 18 21 1014.9 - 0.0
21/01:20pm 33.7 24.7 -2.7 9 17.7 NW 35 41 19 22 1015.0 - 0.0
21/01:10pm 33.8 26.1 -0.3 11 17.2 NW 30 39 16 21 1015.3 - 0.0
21/01:00pm 33.0 26.6 0.8 13 16.5 NW 24 30 13 16 1015.5 - 0.0
21/12:50pm 32.3 25.3 1.9 14 15.8 NW 28 35 15 19 1015.8 - 0.0
21/12:40pm 31.9 24.8 1.3 14 15.7 NNW 28 33 15 18 1015.8 - 0.0
21/12:30pm 31.7 24.5 0.9 14 15.6 NNW 28 32 15 17 1016.1 - 0.0
21/12:20pm 31.4 25.1 1.7 15 15.3 NW 24 33 13 18 1016.2 - 0.0
21/12:10pm 31.0 25.6 2.7 16 14.7 NW 20 28 11 15 1016.4 - 0.0
21/12:00pm 30.7 24.6 2.8 17 14.5 NNW 24 30 13 16 1016.5 - 0.0
21/11:50am 30.5 25.2 2.9 17 14.4 WNW 20 24 11 13 1016.5 - 0.0
21/11:40am 30.1 25.9 4.0 19 13.8 NW 15 17 8 9 1016.7 - 0.0
21/11:30am 30.2 26.0 4.0 19 13.9 WNW 15 17 8 9 1016.8 - 0.0
21/11:20am 30.1 26.4 4.4 19 13.7 NW 13 15 7 8 1016.8 - 0.0
21/11:10am 30.4 28.0 5.4 20 13.6 NNW 7 13 4 7 1016.9 - 0.0
21/11:00am 29.9 27.8 5.7 21 13.2 NW 6 9 3 5 1017.1 - 0.0
21/10:50am 29.7 27.9 5.4 21 13.1 NNW 4 7 2 4 1017.2 - 0.0
21/10:40am 29.3 27.5 5.3 22 12.9 NW 4 6 2 3 1017.2 - 0.0
21/10:30am - - 5.7 - - NW 4 6 2 3 1017.3 - 0.0
21/10:20am - - 5.5 - - NNW 4 7 2 4 1017.4 - 0.0
21/10:10am - - 4.9 - - N 4 6 2 3 1017.5 - 0.0
21/10:00am - - 5.3 - - ESE 4 7 2 4 1017.5 - 0.0
21/09:50am - - 6.2 - - SSE 6 7 3 4 1017.6 - 0.0
21/09:40am - - 8.0 - - SE 7 11 4 6 1017.6 - 0.0
21/09:30am - - 9.6 - - SSE 9 11 5 6 1017.7 - 0.0
21/09:20am - - 8.6 - - SE 9 13 5 7 1017.8 - 0.0
21/09:10am - - 9.2 - - SE 13 15 7 8 1018.0 - 0.0
21/09:00am - - 9.2 - - ESE 13 13 7 7 1018.0 - 0.0
21/08:50am - - 8.9 - - ESE 11 13 6 7 1018.1 - 0.0
21/08:40am - - 9.0 - - SE 11 13 6 7 1018.1 - 0.0
21/08:30am - - 9.1 - - SE 11 13 6 7 1018.1 - 0.0
21/08:20am - - 9.0 - - SE 13 15 7 8 1018.1 - 0.0
21/08:10am - - 9.1 - - SE 13 15 7 8 1018.1 - 0.0
21/08:00am - - 8.3 - - SE 13 15 7 8 1018.0 - 0.0
21/07:50am - - 8.3 - - SE 11 13 6 7 1018.0 - 0.0
21/07:40am - - 8.4 - - SSE 13 15 7 8 1017.9 - 0.0
21/07:30am - - 8.7 - - SSE 13 15 7 8 1017.8 - 0.0
21/07:20am - - 8.6 - - SSE 15 17 8 9 1017.8 - 0.0
21/07:10am - - 8.2 - - SE 15 15 8 8 1017.8 - 0.0
21/07:00am - - 8.4 - - SSE 15 17 8 9 1017.7 - 0.0
21/06:50am - - 8.3 - - SSE 15 17 8 9 1017.7 - 0.0
21/06:40am - - 8.1 - - S 17 17 9 9 1017.7 - 0.0
21/06:30am - - 9.4 - - SSE 15 15 8 8 1017.6 - 0.0
21/06:20am - - 9.4 - - SSE 17 19 9 10 1017.6 - 0.0
21/06:10am - - 9.5 - - SE 15 17 8 9 1017.6 - 0.0
21/06:00am - - 9.4 - - SE 17 17 9 9 1017.7 - 0.0
21/05:50am - - 9.6 - - SE 17 19 9 10 1017.6 - 0.0
21/05:40am - - 9.6 - - SSE 15 17 8 9 1017.4 - 0.0
21/05:30am - - 9.3 - - S 15 15 8 8 1017.5 - 0.0
21/05:20am - - 9.7 - - SSE 15 17 8 9 1017.3 - 0.0
21/05:10am - - 9.5 - - SE 13 15 7 8 1017.4 - 0.0
21/05:00am - - 9.8 - - SE 15 17 8 9 1017.5 - 0.0
21/04:30am 16.2 12.9 9.6 65 3.6 SSE 17 19 9 10 1017.3 - 0.0
21/04:20am 16.4 13.1 9.6 64 3.7 SSE 17 19 9 10 1017.3 - 0.0
21/04:10am 16.2 13.8 9.9 66 3.4 SE 13 15 7 8 1017.4 - 0.0
21/04:00am 16.5 13.2 9.7 64 3.7 SE 17 19 9 10 1017.3 - 0.0
21/03:50am 16.3 13.1 9.9 66 3.5 SSE 17 19 9 10 1017.3 - 0.0
21/03:40am 16.2 12.6 9.9 66 3.4 S 19 20 10 11 1017.5 - 0.0
21/03:30am 16.3 12.1 9.8 65 3.5 S 22 24 12 13 1017.5 - 0.0
21/03:20am 16.3 12.1 9.9 66 3.5 SSE 22 26 12 14 1017.4 - 0.0
21/03:10am 16.5 13.4 10.2 66 3.5 SE 17 19 9 10 1017.5 - 0.0
21/03:00am 16.7 13.6 10.3 66 3.5 ESE 17 19 9 10 1017.7 - 0.0
21/02:50am 16.7 13.6 10.2 65 3.6 ESE 17 19 9 10 1017.9 - 0.0
21/02:40am 17.1 14.0 10.2 64 3.8 SE 17 19 9 10 1017.8 - 0.0
21/02:30am 17.4 13.9 10.1 62 4.0 SSE 19 22 10 12 1017.9 - 0.0
21/02:20am 17.5 13.8 10.3 62 4.0 SSE 20 22 11 12 1017.8 - 0.0
21/02:10am 17.6 14.0 10.4 62 4.0 SSE 20 20 11 11 1017.9 - 0.0
21/02:00am 17.7 14.1 10.5 62 4.0 SSE 20 22 11 12 1018.0 - 0.0
21/01:50am 17.7 13.7 10.5 62 4.0 SSE 22 24 12 13 1018.1 - 0.0
21/01:40am 17.6 13.2 10.4 62 4.0 SSE 24 24 13 13 1018.1 - 0.0
21/01:30am 17.5 13.4 10.2 62 4.0 SSE 22 24 12 13 1018.3 - 0.0
21/01:20am 17.6 13.2 10.3 62 4.0 SSE 24 26 13 14 1018.4 - 0.0
21/01:10am 17.8 13.4 10.5 62 4.1 SSE 24 26 13 14 1018.4 - 0.0
21/01:00am 17.8 13.4 10.5 62 4.1 SSE 24 24 13 13 1018.5 - 0.0
21/12:50am 17.8 13.4 10.5 62 4.1 SSE 24 24 13 13 1018.6 - 0.0
21/12:40am 18.3 13.9 10.5 60 4.3 SSE 24 26 13 14 1018.6 - 0.0
21/12:30am 18.3 13.9 10.3 59 4.4 SSE 24 24 13 13 1018.8 - 0.0
21/12:20am 18.7 14.2 9.9 56 4.9 SSE 24 26 13 14 1018.9 - 0.0
21/12:10am 18.8 14.2 9.8 56 5.0 SSE 24 24 13 13 1018.8 - 0.0
21/12:00am 18.9 13.9 9.6 54 5.1 SSE 26 26 14 14 1018.8 - 0.0
 
Date/Time
EDT
Temp
°C
App
Temp
°C
Dew
Point
°C
Rel
Hum
%
Delta-T
°C
Wind Press
QNH
hPa
Press
MSL
hPa
Rain since
9am
mm
Dir  Spd
km/h
Gust
km/h
Spd
kts
Gust
kts
20/11:50pm 19.0 14.4 9.5 54 5.2 SE 24 26 13 14 1018.8 - 0.0
20/11:40pm 19.3 14.6 9.3 52 5.5 SSE 24 26 13 14 1018.8 - 0.0
20/11:30pm 19.7 14.5 5.5 39 7.3 SSE 22 24 12 13 1018.8 - 0.0
20/11:20pm 19.8 15.8 9.1 50 5.9 SSE 20 22 11 12 1018.8 - 0.0
20/11:10pm 19.8 15.8 9.1 50 5.9 SSE 20 22 11 12 1018.9 - 0.0
20/11:00pm 19.8 15.8 9.0 49 5.9 SSE 20 20 11 11 1018.8 - 0.0
20/10:50pm 20.1 15.7 8.8 48 6.2 SSE 22 24 12 13 1018.8 - 0.0
20/10:40pm 20.3 15.8 8.7 47 6.3 SSE 22 24 12 13 1018.9 - 0.0
20/10:30pm 20.5 15.9 8.3 45 6.6 SSE 22 24 12 13 1018.8 - 0.0
20/10:20pm 20.9 15.4 7.5 42 7.2 SSE 26 28 14 15 1018.8 - 0.0
20/10:10pm 21.2 16.1 7.7 41 7.3 SE 24 26 13 14 1018.7 - 0.0
20/10:00pm 22.0 16.7 7.0 38 8.0 SE 24 26 13 14 1018.6 - 0.0
20/09:50pm 22.3 16.8 5.9 34 8.6 SE 24 26 13 14 1018.5 - 0.0
20/09:40pm 22.4 17.6 4.8 31 9.0 SE 19 22 10 12 1018.4 - 0.0
20/09:30pm 23.3 18.7 3.6 27 9.9 E 17 19 9 10 1018.4 - 0.0
20/09:20pm 23.3 18.6 3.4 27 10.0 SE 17 19 9 10 1018.3 - 0.0
20/09:10pm 24.2 19.3 2.0 23 10.9 SE 17 20 9 11 1018.0 - 0.0
20/09:00pm 25.4 21.2 1.5 21 11.8 ESE 13 15 7 8 1017.8 - 0.0
20/08:50pm 24.9 20.7 1.6 22 11.5 ESE 13 20 7 11 1017.6 - 0.0
20/08:40pm 26.7 23.6 0.0 17 12.9 ESE 6 6 3 3 1017.6 - 0.0
20/08:30pm 26.7 23.9 -0.2 17 13.0 E 4 6 2 3 1017.4 - 0.0
20/08:20pm 26.4 23.3 -0.1 17 12.8 E 6 6 3 3 1017.3 - 0.0
20/08:10pm 26.4 23.3 0.1 18 12.7 ENE 6 7 3 4 1017.2 - 0.0
20/08:00pm 26.5 23.2 0.2 18 12.8 ENE 7 9 4 5 1017.2 - 0.0
20/07:50pm 26.8 23.1 0.2 17 12.9 NE 9 9 5 5 1017.1 - 0.0
20/07:40pm 27.2 23.6 0.3 17 13.1 NE 9 9 5 5 1017.1 - 0.0
20/07:30pm 27.4 24.1 0.3 17 13.2 N 7 9 4 5 1017.0 - 0.0
20/07:20pm 27.3 23.6 0.2 17 13.2 N 9 13 5 7 1016.9 - 0.0
20/07:10pm 27.2 22.8 0.3 17 13.1 NNE 13 15 7 8 1016.8 - 0.0
20/07:00pm 27.3 23.7 0.3 17 13.2 NNE 9 11 5 6 1016.7 - 0.0
20/06:50pm 27.5 24.5 0.5 17 13.3 N 6 7 3 4 1016.7 - 0.0
20/06:40pm 27.6 24.4 0.9 17 13.2 N 7 9 4 5 1016.6 - 0.0
20/06:30pm 27.7 23.4 0.7 17 13.3 NNE 13 15 7 8 1016.4 - 0.0
20/06:20pm 28.0 24.4 0.7 17 13.5 NNE 9 13 5 7 1016.3 - 0.0
20/06:10pm 28.3 24.3 0.7 16 13.7 NNE 11 13 6 7 1016.3 - 0.0
20/06:00pm 28.6 24.7 1.1 17 13.7 NNE 11 17 6 9 1016.2 - 0.0
20/05:50pm 28.9 25.9 1.0 16 13.9 NNE 6 9 3 5 1016.3 - 0.0
20/05:40pm 28.9 25.9 1.0 16 13.9 NNE 6 13 3 7 1016.2 - 0.0
20/05:30pm 28.9 25.8 1.1 16 13.9 ENE 7 13 4 7 1016.2 - 0.0
20/05:20pm 28.5 25.0 1.1 17 13.7 NNE 9 15 5 8 1016.2 - 0.0
20/05:10pm 28.2 24.3 1.3 17 13.5 N 11 15 6 8 1016.2 - 0.0
20/05:00pm 28.3 24.9 1.6 18 13.4 N 9 13 5 7 1016.3 - 0.0
20/04:50pm 27.7 23.9 1.8 18 13.0 N 11 15 6 8 1016.3 - 0.0
20/04:40pm 27.5 22.6 1.9 19 12.9 N 17 20 9 11 1016.2 - 0.0
20/04:30pm 27.6 22.7 2.2 19 12.9 NNW 17 19 9 10 1016.3 - 0.0
20/04:20pm 28.0 23.1 2.1 19 13.1 NW 17 20 9 11 1016.4 - 0.0
20/04:10pm 28.7 24.7 2.6 18 13.4 N 13 17 7 9 1016.3 - 0.0
20/04:00pm 28.6 24.9 2.6 19 13.3 NNW 11 19 6 10 1016.3 - 0.0
20/03:50pm 28.1 24.8 2.6 19 13.0 NNW 9 13 5 7 1016.4 - 0.0
20/03:40pm 28.0 25.4 3.4 20 12.7 NNE 6 13 3 7 1016.5 - 0.0
20/03:30pm 27.9 25.2 3.7 21 12.6 ENE 7 11 4 6 1016.6 - 0.0
20/03:20pm 28.1 25.5 3.4 20 12.8 NNE 6 11 3 6 1016.6 - 0.0
20/03:10pm 27.8 25.2 3.3 20 12.7 NE 6 11 3 6 1016.6 - 0.0
20/03:00pm 27.2 24.4 3.2 21 12.3 E 7 17 4 9 1016.8 - 0.0
20/02:50pm 27.1 23.6 3.7 22 12.1 ESE 11 17 6 9 1016.8 - 0.0
20/02:40pm 28.0 25.3 3.7 21 12.7 E 7 15 4 8 1017.1 - 0.0
20/02:30pm 26.9 23.8 3.6 22 12.0 ESE 9 19 5 10 1017.0 - 0.0
20/02:20pm 26.4 23.0 4.2 24 11.6 E 11 24 6 13 1017.2 - 0.0
20/02:10pm 26.9 23.2 4.2 23 11.8 NE 13 17 7 9 1017.1 - 0.0
20/02:00pm 26.4 22.9 3.7 23 11.7 ENE 11 17 6 9 1017.3 - 0.0
20/01:50pm 26.1 22.7 4.0 24 11.4 E 11 19 6 10 1017.4 - 0.0
20/01:40pm 25.1 21.0 4.3 26 10.8 E 15 19 8 10 1017.4 - 0.0
20/01:30pm 25.1 20.5 3.5 24 11.0 E 17 20 9 11 1017.5 - 0.0
20/01:20pm 24.0 20.2 4.1 27 10.2 ESE 13 22 7 12 1017.8 - 0.0
20/01:10pm 24.0 19.5 4.0 27 10.2 SE 17 22 9 12 1017.8 - 0.0
20/01:00pm 24.5 20.4 4.4 27 10.4 ESE 15 20 8 11 1017.9 - 0.0
20/12:50pm 23.3 18.7 3.7 28 9.9 E 17 26 9 14 1018.0 - 0.0
20/12:40pm 22.7 18.5 5.6 33 8.9 ESE 17 22 9 12 1018.0 - 0.0
20/12:30pm 21.9 17.9 5.0 33 8.7 SE 15 19 8 10 1018.2 - 0.0
20/12:20pm 21.6 17.5 6.1 36 8.1 ESE 17 22 9 12 1018.2 - 0.0
20/12:10pm 21.4 16.7 5.2 34 8.3 SE 19 24 10 13 1018.1 - 0.0
20/12:00pm 20.5 16.8 6.1 39 7.5 ESE 15 20 8 11 1018.4 - 0.0
20/11:50am 20.0 15.6 6.4 41 7.1 SE 19 22 10 12 1018.5 - 0.0
20/11:40am 19.5 15.5 6.8 43 6.6 SE 17 24 9 13 1018.7 - 0.0
20/11:30am 19.2 14.9 7.0 45 6.4 SE 19 22 10 12 1018.8 - 0.0
20/11:20am 19.2 15.2 6.8 44 6.5 SE 17 20 9 11 1018.7 - 0.0
20/11:10am 18.4 13.8 6.6 46 6.1 SE 20 26 11 14 1018.5 - 0.0
20/11:00am 18.1 13.2 7.1 48 5.7 SE 22 28 12 15 1018.4 - 0.0
20/10:50am 17.9 13.1 7.4 50 5.5 ESE 22 26 12 14 1018.5 - 0.0
20/10:40am 17.3 12.4 7.1 51 5.3 SE 22 30 12 16 1018.8 - 0.0
20/10:30am 17.2 12.0 7.2 51 5.2 SE 24 28 13 15 1018.6 - 0.0
20/10:20am 16.7 11.1 7.0 52 5.0 SE 26 30 14 16 1018.7 - 0.0
20/10:10am 16.0 10.1 7.5 57 4.4 SE 28 33 15 18 1018.8 - 0.0
20/10:00am 15.6 9.2 7.1 57 4.4 ESE 30 35 16 19 1018.7 - 0.0
20/09:50am 15.9 9.1 6.9 55 4.6 SE 32 35 17 19 1018.7 - 0.0
20/09:40am 14.9 8.2 7.3 60 3.9 SE 32 35 17 19 1018.9 - 0.0
20/09:30am 14.6 7.7 7.2 61 3.8 SE 33 39 18 21 1018.8 - 0.0
20/09:20am 14.1 7.4 7.2 63 3.5 ESE 32 35 17 19 1018.7 - 0.0
20/09:10am 13.9 7.5 6.9 62 3.5 SE 30 32 16 17 1019.1 - 0.0
20/09:00am 13.5 7.1 7.0 65 3.3 SE 30 32 16 17 1019.2 - 0.0
20/08:50am 12.9 6.6 7.2 68 2.9 SE 30 33 16 18 1019.1 - 0.0
20/08:40am 12.8 5.5 7.3 69 2.8 ESE 35 39 19 21 1019.0 - 0.0
20/08:30am 12.5 5.2 7.0 69 2.8 SE 35 39 19 21 1018.6 - 0.0
20/08:20am 12.2 4.9 7.1 71 2.6 SE 35 39 19 21 1019.0 - 0.0
20/08:10am 11.9 4.6 7.0 72 2.4 SE 35 37 19 20 1018.9 - 0.0
20/08:00am 11.8 4.4 6.9 72 2.4 SE 35 35 19 19 1019.0 - 0.0
20/07:50am 11.4 4.4 6.9 74 2.2 SE 33 37 18 20 1019.0 - 0.0
20/07:40am 11.4 4.6 6.8 73 2.3 SE 32 33 17 18 1018.9 - 0.0
20/07:30am 11.2 4.8 6.9 75 2.1 SE 30 33 16 18 1018.7 - 0.0
20/07:20am 10.9 4.9 7.0 77 1.9 SE 28 30 15 16 1018.6 - 0.0
20/07:10am 10.7 4.3 7.1 78 1.8 SE 30 32 16 17 1018.5 - 0.0
20/07:00am 10.4 4.4 6.9 79 1.7 SE 28 30 15 16 1018.4 - 0.0
20/06:50am 10.0 3.6 6.8 80 1.6 SE 30 32 16 17 1018.3 - 0.0
20/06:40am 9.5 3.8 6.7 83 1.4 SSE 26 28 14 15 1018.4 - 0.0
20/06:30am 9.2 3.5 6.5 83 1.3 SSE 26 28 14 15 1018.4 - 0.0
20/06:20am 9.1 3.0 6.5 84 1.3 SSE 28 30 15 16 1018.2 - 0.0
20/06:10am 9.1 2.7 6.8 85 1.1 SE 30 32 16 17 1018.0 - 0.0
20/06:00am 8.8 2.3 6.7 87 1.0 SE 30 30 16 16 1017.7 - 0.0
20/05:50am 8.8 2.3 6.3 84 1.2 SE 30 30 16 16 1017.7 - 0.0
20/05:40am 8.6 2.4 6.1 84 1.2 SE 28 30 15 16 1017.5 - 0.0
20/05:30am 8.7 2.4 5.6 81 1.5 SE 28 28 15 15 1017.5 - 0.0
20/05:20am 9.0 2.5 4.9 75 1.9 SE 28 30 15 16 1017.4 - 0.0
20/05:10am 9.3 3.0 5.9 79 1.6 ESE 28 30 15 16 1017.2 - 0.0
20/05:00am 9.6 3.3 5.8 77 1.8 ESE 28 28 15 15 1017.1 - 0.0
20/04:50am 9.7 3.3 5.1 73 2.2 ESE 28 28 15 15 1017.2 - 0.0
20/04:40am 10.0 3.8 4.4 68 2.6 ESE 26 28 14 15 1016.9 - 0.0
20/04:30am 10.1 4.3 4.2 67 2.7 ESE 24 24 13 13 1017.0 - 0.0
20/04:20am 10.3 4.8 4.1 65 2.9 SE 22 24 12 13 1016.9 - 0.0
20/04:10am 10.4 4.5 4.1 65 2.9 SE 24 24 13 13 1016.8 - 0.0
20/04:00am 10.3 4.8 4.1 65 2.9 SE 22 22 12 12 1016.9 - 0.0
20/03:50am 10.3 4.8 4.2 66 2.8 SE 22 24 12 13 1016.8 - 0.0
20/03:40am 10.6 5.2 4.5 66 2.9 SE 22 24 12 13 1016.8 - 0.0
20/03:30am 10.8 5.0 4.4 64 3.0 SE 24 26 13 14 1016.8 - 0.0
20/03:20am 10.8 5.0 4.4 64 3.0 SE 24 24 13 13 1016.9 - 0.0
20/03:10am 11.0 4.8 4.2 63 3.2 SE 26 26 14 14 1016.9 - 0.0
20/03:00am 10.9 5.1 4.3 64 3.1 SE 24 26 13 14 1016.8 - 0.0
20/02:50am 11.1 5.3 4.2 62 3.2 SE 24 24 13 13 1016.8 - 0.0
20/02:40am 11.3 5.4 4.1 61 3.4 SE 24 26 13 14 1016.7 - 0.0
 
Date/Time
EDT
Temp
°C
App
Temp
°C
Dew
Point
°C
Rel
Hum
%
Delta-T
°C
Wind Press
QNH
hPa
Press
MSL
hPa
Rain since
9am
mm
Dir  Spd
km/h
Gust
km/h
Spd
kts
Gust
kts
19/02:10pm 28.6 18.5 -2.2 13 14.5 WNW 41 46 22 25 1012.9 - 0.0
19/02:00pm 27.9 17.3 -1.9 14 14.1 WNW 44 52 24 28 1013.0 - 0.0
19/01:50pm 28.2 18.1 -2.4 13 14.3 WNW 41 52 22 28 1013.2 - 0.0
19/01:40pm 27.9 16.8 -2.9 13 14.3 WNW 46 59 25 32 1013.4 - 0.0
19/01:30pm 27.4 15.6 -2.0 14 13.8 WNW 50 67 27 36 1013.7 - 0.0
19/01:20pm 27.1 14.5 -2.7 14 13.8 WNW 54 67 29 36 1013.0 - 0.0
19/01:10pm 26.8 - - - - WNW 46 63 25 34 1013.8 - 0.0
19/01:00pm 27.1 17.0 -2.1 14 13.6 WNW 41 48 22 26 1013.8 - 0.0
19/12:50pm 27.1 17.1 -1.9 15 13.6 WNW 41 52 22 28 1014.2 - 0.0
19/12:40pm 25.8 14.4 -2.2 15 12.9 WNW 48 65 26 35 1014.3 - 0.0
19/12:30pm 25.8 13.7 -1.8 16 12.8 WNW 52 61 28 33 1014.3 - 0.0
19/12:20pm 26.6 17.8 -1.3 16 13.2 WNW 35 46 19 25 1014.7 - 0.0
19/12:10pm 26.3 18.0 -1.7 16 13.1 WNW 32 39 17 21 1015.2 - 0.0
19/12:00pm 25.5 16.3 -1.6 16 12.6 WNW 37 50 20 27 1015.2 - 0.0
19/11:50am 25.4 16.2 -1.7 16 12.6 WNW 37 48 20 26 1015.2 - 0.0
19/11:40am 25.3 16.5 -1.2 17 12.4 WNW 35 39 19 21 1015.3 - 0.0
19/11:30am 24.9 16.2 -0.6 18 12.0 NW 35 50 19 27 1015.3 - 0.0
19/11:20am 25.0 16.6 -0.9 18 12.2 WNW 33 41 18 22 1015.4 - 0.0
19/11:10am 24.6 16.8 -1.1 18 12.0 WNW 30 39 16 21 1015.7 - 0.0
19/11:00am 24.0 15.6 -1.2 19 11.7 WNW 33 43 18 23 1015.7 - 0.0
19/10:50am 23.6 15.5 -0.4 20 11.3 NW 32 39 17 21 1015.8 - 0.0
19/10:40am 23.4 16.0 -0.5 20 11.2 NW 28 35 15 19 1015.9 - 0.0
19/10:30am 22.8 13.8 -0.2 21 10.8 NW 37 43 20 23 1015.9 - 0.0
19/10:20am 22.7 15.0 -0.1 22 10.7 NW 30 41 16 22 1015.9 - 0.0
19/10:10am 21.7 15.1 -0.1 23 10.1 NNW 24 32 13 17 1016.0 - 0.0
19/10:00am 20.9 14.2 1.4 27 9.3 NNW 26 30 14 16 1016.0 - 0.0
19/09:50am 20.6 15.0 1.5 28 9.1 NNW 20 22 11 12 1016.1 - 0.0
19/09:40am 20.3 14.7 1.5 28 8.9 NNW 20 24 11 13 1016.2 - 0.0
19/09:30am 20.0 14.4 1.1 28 8.9 NNW 20 24 11 13 1016.2 - 0.0
19/09:20am 19.4 14.0 1.1 29 8.6 NNW 19 20 10 11 1016.3 - 0.0
19/09:10am 19.4 14.8 1.5 30 8.4 NW 15 17 8 9 1016.5 - 0.0
19/09:00am 19.4 15.1 1.3 30 8.5 NW 13 15 7 8 1016.6 - 0.0
19/08:50am 19.0 15.6 1.8 31 8.1 NW 9 11 5 6 1016.6 - 0.0
19/08:40am 18.4 14.6 1.7 32 7.8 NW 11 13 6 7 1016.6 - 0.0
19/08:30am 18.2 14.4 1.5 32 7.8 NNW 11 15 6 8 1016.4 - 0.0
19/08:20am 17.9 14.1 1.5 33 7.6 NW 11 13 6 7 1016.4 - 0.0
19/08:10am 17.7 13.9 1.7 34 7.5 NW 11 13 6 7 1016.4 - 0.0
19/08:00am 17.7 13.8 1.2 33 7.6 NW 11 13 6 7 1016.4 - 0.0
19/07:50am 17.6 14.1 1.1 33 7.6 NNW 9 11 5 6 1016.3 - 0.0
19/07:40am 17.4 13.9 1.0 33 7.5 NW 9 11 5 6 1016.2 - 0.0
19/07:30am 17.3 13.0 1.0 33 7.5 NW 13 13 7 7 1016.3 - 0.0
19/07:20am 17.2 12.8 0.6 32 7.6 NW 13 15 7 8 1016.2 - 0.0
19/07:10am 17.2 12.9 0.8 33 7.5 NW 13 15 7 8 1016.2 - 0.0
19/07:00am 17.3 12.6 0.7 32 7.6 NW 15 17 8 9 1016.0 - 0.0
19/06:50am 17.4 12.6 0.5 32 7.7 NW 15 15 8 8 1016.0 - 0.0
19/06:40am 17.3 12.5 0.4 32 7.7 NW 15 15 8 8 1015.9 - 0.0
19/06:30am 17.1 12.3 0.4 32 7.6 NW 15 15 8 8 1015.9 - 0.0
19/06:20am 17.1 12.3 0.4 32 7.6 NW 15 15 8 8 1015.8 - 0.0
19/06:10am 17.0 12.2 0.4 32 7.5 NW 15 15 8 8 1015.8 - 0.0
19/06:00am 16.8 12.0 0.3 32 7.4 NW 15 17 8 9 1015.7 - 0.0
19/05:50am 16.6 11.4 0.4 33 7.3 NW 17 17 9 9 1015.6 - 0.0
19/05:40am 16.6 11.1 0.4 33 7.3 NW 19 19 10 10 1015.5 - 0.0
19/05:30am 16.7 11.2 0.4 33 7.4 NW 19 19 10 10 1015.4 - 0.0
19/05:20am 16.6 11.1 0.4 33 7.3 NW 19 20 10 11 1015.3 - 0.0
19/05:10am 16.7 11.0 0.3 33 7.4 NW 20 20 11 11 1015.3 - 0.0
19/05:00am 16.6 11.1 0.3 33 7.3 NW 19 20 10 11 1015.2 - 0.0
19/04:50am 16.5 10.8 0.4 33 7.3 WNW 20 20 11 11 1015.2 - 0.0
19/04:40am 16.5 10.8 0.3 33 7.3 WNW 20 20 11 11 1015.2 - 0.0
19/04:30am 16.8 11.0 0.2 32 7.5 WNW 20 22 11 12 1015.2 - 0.0
19/04:20am 16.7 10.9 0.2 32 7.4 WNW 20 20 11 11 1015.2 - 0.0
19/04:10am 16.7 10.9 0.2 32 7.4 WNW 20 20 11 11 1015.2 - 0.0
19/04:00am 16.4 10.6 0.2 33 7.3 WNW 20 22 11 12 1015.2 - 0.0
19/03:50am 16.2 10.5 0.5 34 7.1 WNW 20 22 11 12 1015.2 - 0.0
19/03:40am 16.9 10.8 0.2 32 7.5 WNW 22 24 12 13 1015.3 - 0.0
19/03:30am 17.1 11.0 0.1 31 7.7 WNW 22 22 12 12 1015.4 - 0.0
19/03:20am 17.0 11.2 0.1 32 7.6 WNW 20 22 11 12 1015.4 - 0.0
19/03:10am 17.1 11.5 0.1 31 7.7 WNW 19 20 10 11 1015.5 - 0.0
19/03:00am 17.5 11.9 0.1 31 7.9 WNW 19 20 10 11 1015.6 - 0.0
19/02:50am 17.5 11.7 -0.1 30 7.9 WNW 20 20 11 11 1015.7 - 0.0
19/02:40am 17.4 11.8 0.0 31 7.8 WNW 19 20 10 11 1015.7 - 0.0
19/02:30am 17.2 11.6 0.1 31 7.7 WNW 19 19 10 10 1015.8 - 0.0
19/02:20am 17.3 11.7 0.1 31 7.8 WNW 19 20 10 11 1015.9 - 0.0
19/02:10am 17.6 11.5 0.1 30 7.9 WNW 22 24 12 13 1016.1 - 0.0
19/02:00am 18.0 11.1 -0.1 29 8.2 W 26 28 14 15 1016.1 - 0.0
19/01:50am 18.3 11.0 -0.2 28 8.4 W 28 28 15 15 1016.1 - 0.0
19/01:40am 18.6 10.9 -0.2 28 8.5 W 30 32 16 17 1016.1 - 0.0
19/01:30am 18.6 10.3 -0.3 28 8.5 W 33 35 18 19 1016.1 - 0.0
19/01:20am 18.8 9.4 -0.3 27 8.7 W 39 41 21 22 1016.0 - 0.0
19/01:10am 18.9 9.1 -0.3 27 8.7 W 41 43 22 23 1016.0 - 0.0
19/01:00am 19.0 8.8 -0.5 27 8.8 W 43 43 23 23 1016.0 - 0.0
19/12:50am 19.0 8.8 -0.4 27 8.8 W 43 44 23 24 1015.9 - 0.0
19/12:40am 19.1 8.9 -0.4 27 8.8 W 43 44 23 24 1016.0 - 0.0
19/12:30am 19.1 8.7 -0.3 27 8.8 W 44 48 24 26 1016.0 - 0.0
19/12:20am 19.3 8.2 -0.3 26 8.9 W 48 50 26 27 1015.9 - 0.0
19/12:10am 19.3 8.2 -0.3 26 8.9 W 48 52 26 28 1016.1 - 0.0
19/12:00am 19.5 7.2 -0.2 26 9.0 W 54 61 29 33 1016.1 - 0.0
 
Date/Time
EDT
Temp
°C
App
Temp
°C
Dew
Point
°C
Rel
Hum
%
Delta-T
°C
Wind Press
QNH
hPa
Press
MSL
hPa
Rain since
9am
mm
Dir  Spd
km/h
Gust
km/h
Spd
kts
Gust
kts
18/11:50pm 19.5 6.8 -0.4 26 9.0 W 56 59 30 32 1016.0 - 0.0
18/11:40pm 19.5 7.2 -0.3 26 9.0 W 54 56 29 30 1016.2 - 0.0
18/11:30pm 19.5 7.6 -0.4 26 9.0 W 52 56 28 30 1016.5 - 0.0
18/11:20pm 19.6 6.9 -0.4 26 9.1 W 56 59 30 32 1016.4 - 0.0
18/11:10pm 19.5 7.6 -0.3 26 9.0 W 52 57 28 31 1016.5 - 0.0
18/11:00pm 19.5 7.6 -0.5 26 9.1 W 52 56 28 30 1016.2 - 0.0
18/10:50pm 19.6 7.3 -0.4 26 9.1 W 54 59 29 32 1016.6 - 0.0
18/10:40pm 19.5 8.3 -0.4 26 9.0 W 48 54 26 29 1016.7 - 0.0
18/10:30pm 19.5 7.6 -0.1 27 9.0 W 52 57 28 31 1016.7 - 0.0
18/10:20pm 19.5 8.4 -0.2 26 9.0 W 48 52 26 28 1016.7 - 0.0
18/10:10pm 19.4 7.9 -0.1 27 8.9 W 50 56 27 30 1016.8 - 0.0
18/10:00pm 19.5 8.4 -0.2 26 9.0 W 48 54 26 29 1016.5 - 0.0
18/09:50pm 19.5 9.7 -0.1 27 9.0 W 41 46 22 25 1016.9 - 0.0
18/09:40pm 19.4 10.4 -0.1 27 8.9 W 37 41 20 22 1016.9 - 0.0

Other formats

Comma delimited format used in spreadsheet applications
http://www.bom.gov.au/fwo/IDN60801/IDN60801.99763.axf

JavaScript Object Notation format (JSON) in row-major order
http://www.bom.gov.au/fwo/IDN60801/IDN60801.99763.json

Data quality

Most of these data are generated automatically and are frequently updated. Quality checks on data are not normally performed. It is possible for incorrect values to appear. Refer to information at About Latest Weather Observations and please check the disclaimer before using these data.